Time;durP1;ratioP1;P1;durP2;ratioP2;P2;SDS_P1;SDS_P2;PMS_P1;PMS_P2;Temp;Humidity;BMP_temperature;BMP_pressure;BME280_temperature;BME280_humidity;BME280_pressure;Samples;Min_cycle;Max_cycle;Signal;HPM_P1;HPM_P2
2022/11/17 00:01:09;;;;;;;3.42;2.67;;;7.80;99.90;;;;;;5083536;28;20094;-78
2022/11/17 00:03:35;;;;;;;3.97;2.00;;;7.80;99.90;;;;;;5083790;28;20456;-81
2022/11/17 00:06:05;;;;;;;1.58;1.27;;;7.90;99.90;;;;;;5084014;28;20051;-80
2022/11/17 00:08:31;;;;;;;0.50;0.50;;;7.90;99.90;;;;;;5066270;28;20470;-79
2022/11/17 00:11:02;;;;;;;0.38;0.38;;;7.90;99.90;;;;;;5084044;28;20072;-80
2022/11/17 00:16:13;;;;;;;1.10;0.65;;;7.80;99.90;;;;;;5084578;28;20063;-78
2022/11/17 00:21:25;;;;;;;3.13;2.15;;;7.90;99.90;;;;;;5083443;28;20410;-80
2022/11/17 00:23:52;;;;;;;4.95;1.67;;;7.90;99.90;;;;;;5083483;28;20048;-80
2022/11/17 00:26:23;;;;;;;1.70;1.58;;;7.90;99.90;;;;;;5083453;28;20428;-80
2022/11/17 00:28:53;;;;;;;0.52;0.52;;;7.90;99.90;;;;;;5083971;28;20869;-80
2022/11/17 00:34:04;;;;;;;0.40;0.40;;;7.80;99.90;;;;;;5084026;28;20079;-78
2022/11/17 00:36:41;;;;;;;1.58;1.27;;;7.90;99.90;;;;;;5082717;28;20101;-79
2022/11/17 00:39:09;;;;;;;3.60;1.85;;;7.90;99.90;;;;;;5083107;28;20115;-80
2022/11/17 00:41:35;;;;;;;0.75;0.75;;;8.70;99.90;;;;;;5083424;28;20040;-79
2022/11/17 00:44:00;;;;;;;1.00;0.57;;;7.90;99.90;;;;;;5083265;28;20555;-80
2022/11/17 00:46:26;;;;;;;1.15;0.85;;;7.90;99.90;;;;;;5082878;28;20494;-79
2022/11/17 00:48:53;;;;;;;2.47;1.35;;;7.90;99.90;;;;;;5083167;28;20454;-81
2022/11/17 00:51:19;;;;;;;0.43;0.43;;;7.90;99.90;;;;;;5083878;28;20084;-79
2022/11/17 00:53:45;;;;;;;1.23;1.13;;;7.90;99.90;;;;;;5083448;28;20089;-79
2022/11/17 00:56:11;;;;;;;1.55;1.25;;;7.90;99.90;;;;;;5065390;28;20458;-81
2022/11/17 00:58:37;;;;;;;3.40;0.65;;;7.90;99.90;;;;;;5083072;28;20143;-79
2022/11/17 01:01:03;;;;;;;0.93;0.40;;;7.90;99.90;;;;;;5083258;28;20048;-80
2022/11/17 01:03:28;;;;;;;0.85;0.85;;;7.90;99.90;;;;;;5083006;28;20051;-81
2022/11/17 01:05:54;;;;;;;0.45;0.32;;;7.90;99.90;;;;;;5083282;28;20044;-79
2022/11/17 01:08:20;;;;;;;1.05;1.02;;;7.90;99.90;;;;;;5064561;28;20529;-80
2022/11/17 01:10:45;;;;;;;1.80;1.70;;;7.90;99.90;;;;;;5083612;28;20083;-80
2022/11/17 01:13:11;;;;;;;2.28;2.08;;;8.10;99.90;;;;;;5083396;28;20116;-80
2022/11/17 01:15:36;;;;;;;1.77;1.60;;;7.90;99.90;;;;;;5082461;28;20311;-80
2022/11/17 01:18:02;;;;;;;0.40;0.40;;;7.90;99.90;;;;;;5082549;28;20137;-78
2022/11/17 01:20:28;;;;;;;1.60;1.38;;;7.90;99.90;;;;;;5082227;28;20128;-78
2022/11/17 01:22:54;;;;;;;2.85;0.98;;;7.90;99.90;;;;;;5064330;28;20063;-79
2022/11/17 01:25:20;;;;;;;1.55;0.80;;;7.90;99.90;;;;;;5083041;28;20494;-79
2022/11/17 01:27:47;;;;;;;1.65;1.38;;;7.90;99.90;;;;;;5083527;28;20036;-80
2022/11/17 01:30:13;;;;;;;0.32;0.30;;;7.90;99.90;;;;;;5082908;28;20048;-81
2022/11/17 01:32:39;;;;;;;3.17;2.45;;;7.90;99.90;;;;;;5082339;28;20048;-80
2022/11/17 01:35:06;;;;;;;0.70;0.70;;;7.90;99.90;;;;;;5083055;28;20048;-80
2022/11/17 01:37:31;;;;;;;0.88;0.65;;;7.90;99.90;;;;;;5082011;28;20048;-82
2022/11/17 01:40:00;;;;;;;0.80;0.73;;;7.80;99.90;;;;;;5083271;28;20044;-80
2022/11/17 01:42:26;;;;;;;0.10;0.10;;;7.80;99.90;;;;;;5082893;28;20086;-78
2022/11/17 01:44:56;;;;;;;20.58;2.10;;;7.80;99.90;;;;;;5082953;28;20348;-78
2022/11/17 01:47:42;;;;;;;0.40;0.40;;;7.80;99.90;;;;;;5084726;28;20127;-81
2022/11/17 01:50:33;;;;;;;2.65;1.63;;;7.80;99.90;;;;;;5086363;28;20040;-81
2022/11/17 01:53:01;;;;;;;0.82;0.82;;;7.80;99.90;;;;;;5085702;28;20081;-79
2022/11/17 01:55:55;;;;;;;0.55;0.55;;;7.90;99.90;;;;;;5067822;28;20511;-78
2022/11/17 01:58:26;;;;;;;0.13;0.13;;;7.80;99.90;;;;;;5085765;28;20047;-80
2022/11/17 02:00:53;;;;;;;0.40;0.40;;;7.80;99.90;;;;;;5086342;28;20048;-81
2022/11/17 02:03:20;;;;;;;1.13;0.70;;;7.80;99.90;;;;;;5085568;28;20040;-79
2022/11/17 02:05:56;;;;;;;0.20;0.20;;;7.80;99.90;;;;;;5085821;28;20482;-80
2022/11/17 02:08:26;;;;;;;0.95;0.68;;;7.80;99.80;;;;;;5085989;28;20048;-78
2022/11/17 02:10:52;;;;;;;1.73;1.33;;;7.80;72.40;;;;;;5067882;28;20052;-79
2022/11/17 02:13:20;;;;;;;0.52;0.35;;;7.90;60.50;;;;;;5068246;28;20051;-79
2022/11/17 02:15:46;;;;;;;1.02;0.70;;;7.80;53.80;;;;;;5085529;28;20091;-80
2022/11/17 02:18:12;;;;;;;2.22;1.65;;;7.80;48.20;;;;;;5067992;28;20170;-79
2022/11/17 02:20:52;;;;;;;1.10;1.00;;;7.90;86.30;;;;;;5085676;28;20494;-80
2022/11/17 02:23:35;;;;;;;0.55;0.55;;;7.80;43.40;;;;;;5086410;28;20036;-81
2022/11/17 02:26:33;;;;;;;3.15;1.40;;;7.80;50.10;;;;;;5085727;28;20076;-81
2022/11/17 02:29:12;;;;;;;1.85;0.80;;;7.80;45.10;;;;;;5085622;28;20448;-80
2022/11/17 02:32:02;;;;;;;1.27;1.17;;;7.80;46.00;;;;;;5086017;28;20044;-78
2022/11/17 02:34:44;;;;;;;1.35;1.27;;;7.70;99.90;;;;;;5085499;28;20537;-80
2022/11/17 02:37:43;;;;;;;2.28;1.02;;;7.60;99.90;;;;;;5085277;28;20052;-77
2022/11/17 02:40:13;;;;;;;6.45;1.08;;;7.50;99.90;;;;;;5085267;28;20054;-80
2022/11/17 02:45:37;;;;;;;0.70;0.70;;;7.40;99.90;;;;;;5085363;28;20095;-82
2022/11/17 02:48:10;;;;;;;0.60;0.47;;;7.40;99.90;;;;;;5085701;28;20094;-79
2022/11/17 02:50:39;;;;;;;0.98;0.88;;;7.30;99.90;;;;;;5085652;28;20055;-81
2022/11/17 02:53:05;;;;;;;1.02;0.93;;;7.30;99.90;;;;;;5085387;28;20473;-81
2022/11/17 02:55:34;;;;;;;0.80;0.80;;;7.30;99.90;;;;;;5084810;28;20044;-78
2022/11/17 02:58:00;;;;;;;0.80;0.68;;;7.20;99.90;;;;;;5175048;22;20064;-77
2022/11/17 03:00:27;;;;;;;1.15;1.02;;;7.20;99.90;;;;;;5066455;28;20044;-77
2022/11/17 03:03:16;;;;;;;1.70;1.00;;;7.30;99.90;;;;;;5052039;28;20079;-78
2022/11/17 03:06:03;;;;;;;1.25;1.15;;;7.20;99.90;;;;;;5060906;28;20140;-78
2022/11/17 03:08:36;;;;;;;;;;;7.30;99.90;;;;;;5065425;28;20053;-76
2022/11/17 03:11:02;;;;;;;2.30;1.77;;;7.20;99.90;;;;;;5068945;28;19924;-78
2022/11/17 03:13:47;;;;;;;1.20;1.10;;;7.20;99.90;;;;;;5068053;28;20063;-79
2022/11/17 03:16:32;;;;;;;0.93;0.93;;;7.10;99.90;;;;;;5065221;28;20057;-78
2022/11/17 03:19:04;;;;;;;2.60;1.13;;;7.00;99.90;;;;;;5045638;28;20124;-79
2022/11/17 03:21:39;;;;;;;0.30;0.30;;;7.00;99.90;;;;;;5045646;28;20060;-78
2022/11/17 03:24:18;;;;;;;1.88;0.77;;;7.00;99.90;;;;;;5065560;28;20398;-78
2022/11/17 03:26:59;;;;;;;0.50;0.50;;;7.00;99.90;;;;;;5065834;28;20044;-77
2022/11/17 03:29:28;;;;;;;0.63;0.63;;;7.00;99.90;;;;;;5065396;28;20514;-78
2022/11/17 03:32:00;;;;;;;2.55;1.85;;;7.00;99.90;;;;;;5057242;28;20052;-76
2022/11/17 03:34:30;;;;;;;1.65;1.52;;;6.90;99.90;;;;;;5062261;28;20506;-78
2022/11/17 03:37:02;;;;;;;0.82;0.82;;;7.00;99.90;;;;;;5066324;28;20040;-79
2022/11/17 03:39:33;;;;;;;1.30;1.17;;;7.00;99.90;;;;;;5049504;28;20509;-79
2022/11/17 03:42:07;;;;;;;1.85;1.65;;;6.90;99.90;;;;;;5067430;28;20054;-77
2022/11/17 03:44:36;;;;;;;6.65;1.80;;;6.90;99.90;;;;;;5068751;28;20127;-79
2022/11/17 03:47:05;;;;;;;4.22;0.90;;;6.90;99.90;;;;;;5067223;28;20549;-80
2022/11/17 03:49:43;;;;;;;0.52;0.50;;;6.80;99.90;;;;;;5065811;28;20556;-77
2022/11/17 03:52:09;;;;;;;1.23;0.93;;;6.80;99.90;;;;;;5067257;28;20053;-77
2022/11/17 03:54:35;;;;;;;0.30;0.30;;;6.80;99.90;;;;;;5042741;28;20057;-79
2022/11/17 03:57:14;;;;;;;1.17;1.08;;;6.80;99.90;;;;;;5049345;28;20156;-78
2022/11/17 03:59:59;;;;;;;1.85;1.25;;;6.80;99.90;;;;;;5051991;28;20127;-78
2022/11/17 04:02:26;;;;;;;2.65;1.45;;;6.80;99.90;;;;;;5068389;28;20063;-78
2022/11/17 04:05:04;;;;;;;1.10;0.75;;;6.80;99.90;;;;;;5067261;28;20435;-76
2022/11/17 04:07:34;;;;;;;1.55;1.45;;;6.70;99.90;;;;;;5060760;28;20050;-77
2022/11/17 04:10:00;;;;;;;1.20;1.00;;;6.70;99.90;;;;;;5046498;28;20495;-78
2022/11/17 04:17:56;;;;;;;1.55;0.65;;;6.70;99.90;;;;;;5055313;28;20062;-77
2022/11/17 04:20:22;;;;;;;2.20;0.95;;;6.60;99.90;;;;;;5067011;28;20127;-76
2022/11/17 04:23:06;;;;;;;0.25;0.25;;;6.60;99.90;;;;;;5067793;28;20055;-77
2022/11/17 04:28:36;;;;;;;8.68;2.17;;;6.60;99.90;;;;;;5045888;28;20104;-76
2022/11/17 04:31:16;;;;;;;0.93;0.93;;;6.90;99.90;;;;;;5047657;28;20044;-78
2022/11/17 04:34:04;;;;;;;1.02;0.88;;;6.60;99.90;;;;;;5047627;28;20632;-76
2022/11/17 04:36:36;;;;;;;0.40;0.40;;;6.60;99.90;;;;;;5047411;28;20411;-76
2022/11/17 04:39:03;;;;;;;1.65;1.08;;;6.60;99.90;;;;;;5048608;28;20041;-76
2022/11/17 04:44:15;;;;;;;0.73;0.55;;;6.50;99.90;;;;;;5048763;28;20515;-77
2022/11/17 04:46:45;;;;;;;1.02;0.93;;;6.50;99.90;;;;;;5048308;28;20503;-78
2022/11/17 04:49:12;;;;;;;0.82;0.82;;;6.50;99.90;;;;;;5048121;28;20045;-78
2022/11/17 04:51:38;;;;;;;1.42;0.95;;;6.40;99.90;;;;;;5046785;28;20053;-76
2022/11/17 04:54:05;;;;;;;0.22;0.22;;;6.40;99.90;;;;;;5047198;28;20756;-77
2022/11/17 04:56:31;;;;;;;3.05;1.38;;;6.40;99.90;;;;;;5030516;28;20448;-76
2022/11/17 04:58:57;;;;;;;0.38;0.38;;;6.50;99.90;;;;;;5065907;28;20083;-76
2022/11/17 05:01:24;;;;;;;0.85;0.80;;;6.40;99.90;;;;;;5067469;28;20052;-77
2022/11/17 05:03:51;;;;;;;1.90;1.80;;;6.40;99.90;;;;;;5050146;28;20048;-78
2022/11/17 05:06:22;;;;;;;0.68;0.52;;;6.40;99.90;;;;;;5067992;28;20071;-78
2022/11/17 05:08:49;;;;;;;2.28;1.08;;;6.40;99.90;;;;;;5055419;28;20045;-77
2022/11/17 05:14:01;;;;;;;0.30;0.30;;;6.40;99.90;;;;;;5046595;28;20114;-77
2022/11/17 05:19:15;;;;;;;0.60;0.60;;;6.30;99.90;;;;;;5068366;28;20560;-78
2022/11/17 05:21:40;;;;;;;0.20;0.20;;;6.30;99.90;;;;;;5069582;28;20040;-76
2022/11/17 05:24:07;;;;;;;1.05;0.95;;;6.30;99.90;;;;;;5072865;28;20090;-77
2022/11/17 05:26:34;;;;;;;1.85;0.80;;;6.20;99.90;;;;;;5071917;28;20044;-77
2022/11/17 05:29:02;;;;;;;0.47;0.45;;;6.20;99.90;;;;;;5072271;28;20044;-76
2022/11/17 05:31:28;;;;;;;2.25;0.93;;;6.20;99.90;;;;;;5072719;28;20482;-78
2022/11/17 05:33:54;;;;;;;0.13;0.13;;;6.20;99.90;;;;;;5073126;28;20175;-78
2022/11/17 05:36:22;;;;;;;0.47;0.47;;;6.20;99.90;;;;;;5071120;28;20094;-79
2022/11/17 05:38:48;;;;;;;1.67;0.90;;;6.20;99.90;;;;;;5066295;28;20096;-76
2022/11/17 05:41:15;;;;;;;4.85;1.02;;;6.20;99.90;;;;;;5069402;28;20446;-77
2022/11/17 05:43:41;;;;;;;1.05;1.02;;;6.10;99.90;;;;;;5070300;28;20064;-77
2022/11/17 05:46:07;;;;;;;1.33;1.02;;;6.10;99.90;;;;;;5068461;28;20040;-76
2022/11/17 05:48:33;;;;;;;0.77;0.65;;;6.10;99.90;;;;;;5057818;28;20068;-76
2022/11/17 05:50:59;;;;;;;0.90;0.73;;;6.10;99.90;;;;;;5049699;28;20131;-76
2022/11/17 05:53:26;;;;;;;1.65;0.75;;;6.10;99.90;;;;;;5030460;28;20134;-77
2022/11/17 05:56:09;;;;;;;4.15;0.50;;;6.10;99.90;;;;;;5047269;28;20063;-77
2022/11/17 05:58:37;;;;;;;1.55;0.55;;;6.10;99.90;;;;;;5047700;28;20066;-77
2022/11/17 06:01:05;;;;;;;0.55;0.55;;;6.10;99.90;;;;;;5050865;28;20460;-78
2022/11/17 06:03:40;;;;;;;0.30;0.30;;;6.10;99.90;;;;;;5046682;28;20073;-77
2022/11/17 06:06:07;;;;;;;0.70;0.70;;;6.20;99.90;;;;;;5059499;28;20048;-77
2022/11/17 06:08:34;;;;;;;1.42;0.93;;;6.10;99.90;;;;;;5068446;28;20286;-77
2022/11/17 06:11:00;;;;;;;0.80;0.70;;;6.20;99.90;;;;;;5068005;28;20143;-77
2022/11/17 06:13:27;;;;;;;1.08;0.98;;;6.20;99.90;;;;;;5066440;28;20147;-77
2022/11/17 06:15:59;;;;;;;0.40;0.40;;;6.20;99.90;;;;;;5056547;28;20053;-77
2022/11/17 06:18:53;;;;;;;3.78;1.48;;;6.20;99.90;;;;;;5049136;28;20045;-78
2022/11/17 06:21:19;;;;;;;0.30;0.30;;;6.10;99.90;;;;;;5048784;28;20499;-78
2022/11/17 06:23:46;;;;;;;0.43;0.40;;;6.10;99.90;;;;;;5048626;28;20041;-77
2022/11/17 06:26:12;;;;;;;0.68;0.68;;;6.10;99.90;;;;;;5048790;28;20101;-78
2022/11/17 06:28:42;;;;;;;0.43;0.43;;;6.10;99.90;;;;;;5047227;28;20120;-78
2022/11/17 06:31:08;;;;;;;0.90;0.63;;;6.10;99.90;;;;;;5047725;28;20045;-78
2022/11/17 06:33:35;;;;;;;0.03;0.03;;;6.10;99.90;;;;;;5047135;28;20103;-79
2022/11/17 06:36:04;;;;;;;4.80;0.85;;;6.10;99.90;;;;;;5046394;28;20157;-79
2022/11/17 06:38:34;;;;;;;0.88;0.85;;;6.10;99.90;;;;;;5046041;28;20487;-78
2022/11/17 06:41:03;;;;;;;0.80;0.77;;;6.10;99.90;;;;;;5044957;28;20049;-77
2022/11/17 06:43:31;;;;;;;0.63;0.63;;;6.20;99.90;;;;;;5045869;28;20063;-78
2022/11/17 06:46:01;;;;;;;0.20;0.20;;;6.20;99.90;;;;;;5046138;28;20049;-78
2022/11/17 06:48:26;;;;;;;0.45;0.40;;;6.20;99.90;;;;;;5045529;28;20379;-78
2022/11/17 06:50:53;;;;;;;0.45;0.35;;;6.10;99.90;;;;;;5045807;28;20132;-78
2022/11/17 06:53:21;;;;;;;2.17;0.47;;;6.10;99.90;;;;;;5045406;28;20057;-77
2022/11/17 06:55:58;;;;;;;1.02;0.93;;;6.10;99.90;;;;;;5046357;28;20490;-77
2022/11/17 06:58:24;;;;;;;0.57;0.57;;;6.10;99.90;;;;;;5046737;28;20554;-78
2022/11/17 07:00:50;;;;;;;1.65;1.17;;;6.10;99.90;;;;;;5046380;28;20056;-78
2022/11/17 07:03:15;;;;;;;0.98;0.73;;;6.20;99.90;;;;;;5047047;28;20057;-76
2022/11/17 07:05:41;;;;;;;1.10;0.80;;;6.20;99.90;;;;;;5058782;28;20044;-76
2022/11/17 07:08:08;;;;;;;0.00;0.00;;;6.20;99.90;;;;;;5053162;28;20497;-78
2022/11/17 07:10:34;;;;;;;2.53;1.25;;;6.20;99.90;;;;;;5064477;28;20070;-77
2022/11/17 07:13:00;;;;;;;0.22;0.22;;;6.20;99.90;;;;;;5048842;28;20052;-78
2022/11/17 07:15:26;;;;;;;0.47;0.47;;;6.20;99.90;;;;;;5066756;28;20047;-77
2022/11/17 07:17:51;;;;;;;0.75;0.73;;;6.20;99.90;;;;;;5065863;28;20036;-77
2022/11/17 07:20:17;;;;;;;0.98;0.55;;;6.10;99.90;;;;;;5066396;28;20048;-77
2022/11/17 07:22:43;;;;;;;0.00;0.00;;;6.20;99.90;;;;;;5065717;28;20506;-79
2022/11/17 07:25:10;;;;;;;0.40;0.40;;;6.10;99.90;;;;;;5066302;28;20051;-76
2022/11/17 07:27:37;;;;;;;0.32;0.32;;;6.10;99.90;;;;;;5065040;28;20079;-77
2022/11/17 07:30:04;;;;;;;1.10;0.32;;;6.10;99.90;;;;;;5066193;28;20045;-78
2022/11/17 07:32:32;;;;;;;0.70;0.70;;;6.20;99.90;;;;;;5048207;28;20418;-77
2022/11/17 07:34:58;;;;;;;0.10;0.10;;;6.10;99.90;;;;;;5064500;28;20055;-77
2022/11/17 07:37:24;;;;;;;0.25;0.20;;;6.20;99.90;;;;;;5061001;28;21845;-78
2022/11/17 07:39:50;;;;;;;1.50;1.40;;;6.10;99.90;;;;;;5044789;28;20045;-77
2022/11/17 07:42:15;;;;;;;0.25;0.25;;;6.10;99.90;;;;;;5044444;28;20051;-77
2022/11/17 07:44:41;;;;;;;0.98;0.88;;;6.10;99.90;;;;;;5043620;28;20052;-78
2022/11/17 07:47:06;;;;;;;0.45;0.45;;;6.50;99.90;;;;;;5043716;28;20041;-77
2022/11/17 07:49:32;;;;;;;0.15;0.15;;;6.10;99.90;;;;;;5043211;28;20045;-76
2022/11/17 07:51:58;;;;;;;0.30;0.30;;;6.10;99.90;;;;;;5044337;28;20132;-78
2022/11/17 07:54:23;;;;;;;0.38;0.38;;;6.10;99.90;;;;;;5044604;28;20170;-77
2022/11/17 07:56:49;;;;;;;0.50;0.47;;;6.10;99.90;;;;;;5062929;28;20491;-78
2022/11/17 07:59:14;;;;;;;0.43;0.43;;;6.10;99.90;;;;;;5063027;28;20045;-78
2022/11/17 08:01:41;;;;;;;0.20;0.20;;;6.10;99.90;;;;;;5044309;28;20055;-79
2022/11/17 08:04:06;;;;;;;0.52;0.50;;;6.10;99.90;;;;;;5062739;28;20053;-78
2022/11/17 08:06:32;;;;;;;0.35;0.28;;;6.10;99.90;;;;;;5063139;28;20051;-77
2022/11/17 08:08:58;;;;;;;0.65;0.35;;;6.10;99.90;;;;;;5061961;28;20463;-77
2022/11/17 08:11:23;;;;;;;0.35;0.35;;;6.10;99.90;;;;;;5062270;28;20066;-76
2022/11/17 08:13:49;;;;;;;1.45;1.08;;;6.10;99.90;;;;;;5062330;28;20036;-77
2022/11/17 08:16:16;;;;;;;1.35;1.25;;;6.10;99.90;;;;;;5063765;28;20056;-78
2022/11/17 08:18:42;;;;;;;1.55;1.38;;;6.20;99.90;;;;;;5063879;28;20053;-77
2022/11/17 08:21:10;;;;;;;0.08;0.08;;;6.20;99.90;;;;;;5064458;28;20037;-78
2022/11/17 08:23:36;;;;;;;0.63;0.35;;;6.20;99.90;;;;;;5063914;28;20510;-76
2022/11/17 08:26:03;;;;;;;0.52;0.35;;;6.20;99.90;;;;;;5064483;28;20736;-77
2022/11/17 08:28:28;;;;;;;0.40;0.40;;;6.30;99.90;;;;;;5065281;28;20048;-78
2022/11/17 08:30:54;;;;;;;0.40;0.20;;;6.20;99.90;;;;;;5064851;28;20494;-77
2022/11/17 08:33:20;;;;;;;1.25;0.98;;;6.20;99.90;;;;;;5064656;28;20048;-76
2022/11/17 08:35:46;;;;;;;0.45;0.45;;;6.20;99.90;;;;;;5065645;28;20048;-79
2022/11/17 08:38:14;;;;;;;0.38;0.38;;;6.20;99.90;;;;;;5065042;28;20044;-78
2022/11/17 08:40:40;;;;;;;0.20;0.20;;;6.20;99.90;;;;;;5064826;28;20044;-77
2022/11/17 08:43:06;;;;;;;0.77;0.65;;;6.20;99.90;;;;;;5065060;28;20056;-77
2022/11/17 08:45:32;;;;;;;0.17;0.17;;;6.20;99.90;;;;;;5064781;28;20036;-76
2022/11/17 08:47:58;;;;;;;1.02;0.95;;;6.30;99.90;;;;;;5064887;28;20542;-78
2022/11/17 08:50:24;;;;;;;0.50;0.35;;;6.30;99.90;;;;;;5064631;28;20052;-76
2022/11/17 08:52:50;;;;;;;0.10;0.10;;;6.30;99.90;;;;;;5064358;28;20197;-77
2022/11/17 08:55:16;;;;;;;1.55;0.80;;;6.30;99.90;;;;;;5065337;28;20107;-77
2022/11/17 08:57:42;;;;;;;0.30;0.30;;;6.30;99.90;;;;;;5068702;28;20067;-78
2022/11/17 09:00:08;;;;;;;0.20;0.20;;;6.30;99.90;;;;;;5069360;28;20517;-76
2022/11/17 09:02:35;;;;;;;0.10;0.10;;;6.30;99.90;;;;;;5069213;28;20052;-77
2022/11/17 09:05:01;;;;;;;1.60;0.82;;;6.30;99.90;;;;;;5068763;28;20567;-78
2022/11/17 09:07:27;;;;;;;0.88;0.43;;;6.30;99.90;;;;;;5069624;28;20076;-79
2022/11/17 09:09:52;;;;;;;0.00;0.00;;;6.20;99.90;;;;;;5068793;28;20075;-78
2022/11/17 09:12:18;;;;;;;0.55;0.55;;;6.20;99.90;;;;;;5068621;28;20048;-80
2022/11/17 09:14:43;;;;;;;0.80;0.73;;;6.20;99.90;;;;;;5068804;28;20040;-79
2022/11/17 09:17:09;;;;;;;0.00;0.00;;;6.20;99.90;;;;;;5068483;28;20055;-79
2022/11/17 09:19:35;;;;;;;0.03;0.03;;;6.20;99.90;;;;;;5068806;28;20086;-77
2022/11/17 09:22:00;;;;;;;0.17;0.17;;;6.30;99.90;;;;;;5067926;28;20097;-77
2022/11/17 09:24:26;;;;;;;0.10;0.10;;;6.20;99.90;;;;;;5067657;28;20502;-77
2022/11/17 09:26:56;;;;;;;0.30;0.30;;;6.30;99.90;;;;;;5068714;28;20094;-78
2022/11/17 09:29:22;;;;;;;0.85;0.85;;;6.30;99.90;;;;;;5068001;28;20051;-78
2022/11/17 09:31:48;;;;;;;0.35;0.35;;;6.30;99.90;;;;;;5066754;28;20044;-77
2022/11/17 09:34:14;;;;;;;0.10;0.10;;;6.50;99.90;;;;;;5067779;28;20045;-77
2022/11/17 09:36:41;;;;;;;0.43;0.40;;;6.30;99.90;;;;;;5067326;28;20549;-77
2022/11/17 09:39:06;;;;;;;0.43;0.43;;;7.30;99.90;;;;;;5067734;28;21033;-76
2022/11/17 09:41:41;;;;;;;6.32;0.95;;;6.20;99.90;;;;;;5067597;28;20465;-76
2022/11/17 09:44:33;;;;;;;0.60;0.57;;;6.30;99.90;;;;;;5066846;28;20055;-77
2022/11/17 09:47:01;;;;;;;0.57;0.47;;;6.30;99.90;;;;;;5067781;28;20040;-77
2022/11/17 09:49:32;;;;;;;0.38;0.35;;;6.30;99.90;;;;;;5067594;28;20190;-77
2022/11/17 09:52:04;;;;;;;0.63;0.63;;;6.30;99.90;;;;;;5068278;28;20075;-77
2022/11/17 09:54:41;;;;;;;0.95;0.70;;;6.20;99.90;;;;;;5068672;28;20048;-78
2022/11/17 09:57:20;;;;;;;0.90;0.55;;;6.20;99.90;;;;;;5068468;28;20045;-77
2022/11/17 09:59:55;;;;;;;0.73;0.73;;;6.20;99.90;;;;;;5068896;28;20074;-78
2022/11/17 10:02:20;;;;;;;0.10;0.10;;;6.20;99.90;;;;;;5051416;28;20052;-77
2022/11/17 10:04:47;;;;;;;0.03;0.03;;;6.30;99.90;;;;;;5068700;28;20617;-76
2022/11/17 10:07:12;;;;;;;0.17;0.17;;;6.20;99.90;;;;;;5068556;28;20045;-78
2022/11/17 10:09:43;;;;;;;0.40;0.30;;;6.20;99.90;;;;;;5068803;28;20157;-77
2022/11/17 10:12:19;;;;;;;0.47;0.47;;;6.20;99.90;;;;;;5068019;28;20087;-77
2022/11/17 10:14:45;;;;;;;;;;;6.20;99.90;;;;;;5068283;28;20048;-77
2022/11/17 10:17:12;;;;;;;0.43;0.43;;;6.20;99.90;;;;;;5066829;28;19924;-78
2022/11/17 10:19:39;;;;;;;0.05;0.05;;;6.20;99.90;;;;;;5067842;28;20224;-78
2022/11/17 10:22:04;;;;;;;0.10;0.10;;;6.20;99.90;;;;;;5067927;28;20047;-78
2022/11/17 10:24:49;;;;;;;0.40;0.40;;;6.20;99.90;;;;;;5069224;28;20048;-78
2022/11/17 10:27:22;;;;;;;0.00;0.00;;;6.20;99.90;;;;;;5068375;28;20063;-80
2022/11/17 10:30:10;;;;;;;0.13;0.13;;;6.30;99.90;;;;;;5067229;28;20542;-79
2022/11/17 10:32:45;;;;;;;1.98;1.77;;;6.30;99.90;;;;;;5072121;28;20384;-78
2022/11/17 10:35:16;;;;;;;0.05;0.05;;;6.30;99.90;;;;;;5073672;28;20091;-79
2022/11/17 10:38:19;;;;;;;0.30;0.30;;;6.30;99.90;;;;;;5073535;28;20040;-79
2022/11/17 10:40:49;;;;;;;0.52;0.38;;;6.30;99.90;;;;;;5045985;28;20048;-81
2022/11/17 10:43:24;;;;;;;0.30;0.30;;;6.30;99.90;;;;;;5072893;28;20523;-81
2022/11/17 10:46:01;;;;;;;0.52;0.52;;;6.30;99.90;;;;;;5071692;28;20057;-81
2022/11/17 10:48:37;;;;;;;3.10;2.53;;;6.30;99.90;;;;;;5070749;28;20052;-80
2022/11/17 10:51:14;;;;;;;0.60;0.57;;;6.30;99.90;;;;;;5063778;28;20051;-80
2022/11/17 10:53:42;;;;;;;0.73;0.60;;;6.30;99.90;;;;;;5089322;28;20059;-81
2022/11/17 10:56:20;;;;;;;0.57;0.52;;;6.30;99.90;;;;;;5076714;28;20037;-79
2022/11/17 10:59:13;;;;;;;0.45;0.22;;;6.30;99.90;;;;;;5069025;28;20062;-80
2022/11/17 11:01:41;;;;;;;0.47;0.47;;;6.40;99.90;;;;;;5068293;28;20524;-80
2022/11/17 11:04:31;;;;;;;0.05;0.05;;;6.40;99.90;;;;;;5068724;28;20044;-81
2022/11/17 11:07:09;;;;;;;0.57;0.43;;;6.40;99.90;;;;;;5068767;28;20040;-80
2022/11/17 11:10:03;;;;;;;0.55;0.50;;;6.40;99.90;;;;;;5068484;28;20068;-80
2022/11/17 11:12:53;;;;;;;2.80;0.82;;;6.50;99.90;;;;;;5070125;28;20565;-80
2022/11/17 11:15:23;;;;;;;0.52;0.50;;;6.50;99.90;;;;;;5073271;28;20080;-80
2022/11/17 11:17:50;;;;;;;0.28;0.28;;;6.50;99.90;;;;;;5087407;28;20052;-80
2022/11/17 11:20:18;;;;;;;0.60;0.60;;;6.50;99.90;;;;;;5084111;28;20055;-79
2022/11/17 11:23:04;;;;;;;0.00;0.00;;;6.50;99.90;;;;;;5084142;28;20488;-80
2022/11/17 11:25:39;;;;;;;2.00;1.23;;;6.50;99.90;;;;;;5077682;28;20093;-79
2022/11/17 11:28:19;;;;;;;0.25;0.25;;;6.50;99.90;;;;;;5064329;28;20092;-80
2022/11/17 11:31:02;;;;;;;0.20;0.20;;;6.50;99.90;;;;;;5064754;28;20060;-80
2022/11/17 11:33:40;;;;;;;0.32;0.32;;;6.50;99.90;;;;;;5063976;28;20067;-80
2022/11/17 11:36:49;;;;;;;0.17;0.17;;;6.50;99.90;;;;;;5053296;28;20553;-80
2022/11/17 11:39:17;;;;;;;0.47;0.47;;;6.60;99.90;;;;;;5046371;28;20079;-81
2022/11/17 11:41:55;;;;;;;0.17;0.10;;;6.50;99.90;;;;;;5043642;28;20051;-80
2022/11/17 11:44:56;;;;;;;0.00;0.00;;;6.50;99.90;;;;;;5044194;28;20053;-81
2022/11/17 11:48:09;;;;;;;0.30;0.28;;;6.50;99.90;;;;;;4984629;28;20046;-82
2022/11/17 11:50:59;;;;;;;0.10;0.10;;;6.50;99.90;;;;;;5009703;28;20057;-79
2022/11/17 11:53:35;;;;;;;0.28;0.28;;;6.50;99.90;;;;;;5016375;28;20061;-78
2022/11/17 11:56:21;;;;;;;0.65;0.65;;;6.50;99.90;;;;;;5046836;28;20048;-82
2022/11/17 11:59:11;;;;;;;0.73;0.73;;;6.60;99.90;;;;;;5047718;28;20079;-80
2022/11/17 12:02:12;;;;;;;0.28;0.28;;;6.50;99.90;;;;;;5077579;28;20487;-80
2022/11/17 12:05:20;;;;;;;0.68;0.68;;;6.60;99.90;;;;;;5072722;28;20052;-81
2022/11/17 12:08:07;;;;;;;0.40;0.40;;;6.60;99.90;;;;;;5086002;28;20609;-78
2022/11/17 12:10:54;;;;;;;0.22;0.22;;;6.60;99.90;;;;;;5084738;28;20372;-81
2022/11/17 12:13:22;;;;;;;1.17;1.08;;;6.60;99.90;;;;;;5086166;28;20455;-81
2022/11/17 12:15:48;;;;;;;0.43;0.43;;;6.60;99.90;;;;;;5087405;28;20483;-82
2022/11/17 12:18:17;;;;;;;0.38;0.38;;;6.60;99.90;;;;;;5088145;28;20501;-82
2022/11/17 12:20:46;;;;;;;0.22;0.10;;;6.60;99.90;;;;;;5087615;28;20528;-80
2022/11/17 12:23:25;;;;;;;0.85;0.77;;;6.60;99.90;;;;;;5089011;28;20529;-83
2022/11/17 12:25:53;;;;;;;2.08;0.93;;;6.50;99.90;;;;;;5087301;28;20528;-80
2022/11/17 12:28:37;;;;;;;3.03;1.30;;;6.60;99.90;;;;;;5088183;28;20050;-80
2022/11/17 12:31:42;;;;;;;0.00;0.00;;;6.60;99.90;;;;;;5086990;28;20178;-79
2022/11/17 12:34:19;;;;;;;0.30;0.28;;;6.60;99.90;;;;;;5089332;28;20048;-78
2022/11/17 12:37:06;;;;;;;2.00;1.25;;;6.60;99.90;;;;;;5086618;28;20055;-81
2022/11/17 12:39:53;;;;;;;0.08;0.08;;;6.60;99.90;;;;;;5087754;28;20044;-81
2022/11/17 12:42:19;;;;;;;1.30;0.75;;;6.70;99.90;;;;;;5073756;28;20063;-80
2022/11/17 12:44:45;;;;;;;0.10;0.10;;;6.70;99.90;;;;;;5091538;28;20033;-81
2022/11/17 12:47:28;;;;;;;0.00;0.00;;;6.70;99.90;;;;;;5089696;28;20123;-80
2022/11/17 12:50:18;;;;;;;0.65;0.60;;;6.70;99.90;;;;;;5089054;28;20506;-81
2022/11/17 12:52:49;;;;;;;0.10;0.10;;;6.80;99.90;;;;;;5088328;28;20052;-81
2022/11/17 12:55:22;;;;;;;0.13;0.13;;;6.80;99.90;;;;;;5089688;28;20047;-81
2022/11/17 12:57:56;;;;;;;0.65;0.55;;;6.80;99.90;;;;;;5090708;28;20117;-82
2022/11/17 13:00:23;;;;;;;0.75;0.68;;;6.90;99.90;;;;;;5089220;28;20064;-82
2022/11/17 13:03:20;;;;;;;0.85;0.85;;;6.90;99.90;;;;;;5086900;28;20050;-80
2022/11/17 13:06:08;;;;;;;1.42;0.47;;;7.00;99.90;;;;;;5089820;28;20582;-80
2022/11/17 13:08:34;;;;;;;0.00;0.00;;;7.00;99.90;;;;;;5087128;28;20055;-79
2022/11/17 13:11:06;;;;;;;0.00;0.00;;;7.00;99.90;;;;;;5085829;28;20047;-79
2022/11/17 13:13:32;;;;;;;0.00;0.00;;;6.90;99.90;;;;;;5090262;28;20069;-80
2022/11/17 13:16:00;;;;;;;0.05;0.05;;;7.00;99.90;;;;;;5087028;28;20131;-81
2022/11/17 13:18:34;;;;;;;0.20;0.20;;;6.90;99.90;;;;;;5087349;28;20036;-80
2022/11/17 13:21:00;;;;;;;0.22;0.22;;;6.90;99.90;;;;;;5088113;28;20500;-80
2022/11/17 13:23:29;;;;;;;0.10;0.10;;;6.90;99.90;;;;;;5088951;28;20130;-80
2022/11/17 13:26:20;;;;;;;0.35;0.35;;;6.90;99.90;;;;;;5088907;28;20473;-82
2022/11/17 13:29:00;;;;;;;0.10;0.10;;;6.90;99.90;;;;;;5090032;28;20185;-80
2022/11/17 13:31:26;;;;;;;0.47;0.47;;;6.90;99.90;;;;;;5089964;28;20051;-81
2022/11/17 13:34:05;;;;;;;1.15;0.77;;;6.90;99.90;;;;;;5087902;28;20533;-80
2022/11/17 13:36:31;;;;;;;0.10;0.10;;;7.00;99.90;;;;;;5087938;28;20036;-80
2022/11/17 13:38:59;;;;;;;2.28;0.70;;;7.00;99.90;;;;;;5087020;28;20059;-80
2022/11/17 13:41:27;;;;;;;0.20;0.20;;;7.00;99.90;;;;;;5069596;28;20052;-81
2022/11/17 13:43:53;;;;;;;0.47;0.22;;;7.00;99.90;;;;;;5092146;28;20387;-81
2022/11/17 13:46:19;;;;;;;2.42;0.90;;;7.00;99.90;;;;;;5077458;28;20056;-80
2022/11/17 13:48:46;;;;;;;0.10;0.10;;;7.00;99.90;;;;;;5093053;28;20413;-80